Thompsons Station, Tennessee
Current Conditions -  °F | °C
As of 7:55 PM on Saturday 25 Oct 2014 (Local Time) from KMRC Reporting Station
Broken Clouds Broken Clouds  
Wind Chill: 66°   Ceiling: 4200
Heat Index: 66°   Visibility: 10mi
Dew Point: 66°   Wind: 0mph
Humidity: 100%   Direction: NA
Pressure: 30.02"   Gusts: NA
Location:  35.8°N, 86.91°W
Report Text: KMRC 260055Z AUTO 00000KT 10SM SCT037 BKN042 19/19 A3002 RMK
Loading
Personal Weather Stations






























Interactive Weather Map New forecast layout! Learn more

10-Day Weather Forecast

Advertisements
Track Severe Weather on mobile